Time;durP1;ratioP1;P1;durP2;ratioP2;P2;SDS_P1;SDS_P2;PMS_P1;PMS_P2;Temp;Humidity;BMP_temperature;BMP_pressure;BME280_temperature;BME280_humidity;BME280_pressure;Samples;Min_cycle;Max_cycle;Signal;HPM_P1;HPM_P2
2023/01/25 00:00:06;;;;;;;;;44.50;37.00;;;;;4.30;100.00;103036.34;5068613;28;45479;-83
2023/01/25 00:02:34;;;;;;;;;37.75;34.50;;;;;4.30;100.00;103024.63;5078875;27;45568;-84
2023/01/25 00:05:00;;;;;;;;;51.50;38.75;;;;;4.36;100.00;103029.59;5058755;28;45560;-82
2023/01/25 00:07:25;;;;;;;;;36.00;27.75;;;;;4.26;100.00;103015.81;5077740;28;44810;-81
2023/01/25 00:09:51;;;;;;;;;52.75;38.75;;;;;4.16;100.00;103002.03;5080642;28;45771;-84
2023/01/25 00:12:16;;;;;;;;;55.50;40.25;;;;;4.15;100.00;102988.56;5075639;27;46508;-85
2023/01/25 00:14:42;;;;;;;;;54.00;39.00;;;;;4.39;100.00;103029.38;5096910;27;46242;-84
2023/01/25 00:17:07;;;;;;;;;49.75;38.75;;;;;4.37;100.00;103015.00;5077416;27;45768;-83
2023/01/25 00:19:33;;;;;;;;;58.75;38.50;;;;;4.35;100.00;103001.53;5091578;27;45905;-83
2023/01/25 00:21:59;;;;;;;;;57.00;39.50;;;;;4.44;100.00;103018.16;5068550;27;45783;-84
2023/01/25 00:24:25;;;;;;;;;54.00;39.75;;;;;4.27;100.00;102994.94;5071236;27;45296;-85
2023/01/25 00:26:52;;;;;;;;;54.75;39.75;;;;;4.35;100.00;103006.97;5083502;27;45524;-82
2023/01/25 00:29:17;;;;;;;;;59.00;43.25;;;;;4.44;100.00;103010.88;5085437;27;45377;-83
2023/01/25 00:31:57;;;;;;;;;47.25;39.75;;;;;4.41;100.00;103021.97;5083090;27;44927;-82
2023/01/25 00:34:26;;;;;;;;;57.00;44.00;;;;;4.38;100.00;103014.91;5077550;28;45710;-83
2023/01/25 00:36:57;;;;;;;;;51.25;40.00;;;;;4.31;100.00;103016.34;5083752;27;45300;-83
2023/01/25 00:39:25;;;;;;;;;56.25;42.00;;;;;4.37;100.00;103020.44;5079893;27;45563;-83
2023/01/25 00:41:51;;;;;;;;;52.75;37.75;;;;;4.38;100.00;103025.78;5078952;28;45384;-82
2023/01/25 00:44:17;;;;;;;;;56.75;43.00;;;;;4.27;100.00;103003.06;5080111;27;45441;-84
2023/01/25 00:46:42;;;;;;;;;60.50;42.00;;;;;4.25;100.00;102995.03;5078607;28;45633;-84
2023/01/25 00:49:20;;;;;;;;;61.25;42.25;;;;;4.27;100.00;102998.53;5092623;27;45426;-83
2023/01/25 00:51:46;;;;;;;;;52.50;40.25;;;;;4.19;100.00;102984.63;5078197;27;46057;-83
2023/01/25 00:54:12;;;;;;;;;54.75;41.25;;;;;4.31;100.00;103004.59;5087021;27;45577;-84
2023/01/25 00:56:37;;;;;;;;;48.50;38.00;;;;;4.32;100.00;103012.63;5070557;28;45764;-83
2023/01/25 00:59:03;;;;;;;;;57.50;44.00;;;;;3.94;100.00;102950.22;5083558;27;45360;-84
2023/01/25 01:01:28;;;;;;;;;57.25;44.00;;;;;4.22;100.00;103000.69;5075850;28;45739;-84
2023/01/25 01:03:54;;;;;;;;;53.00;44.25;;;;;4.25;100.00;103005.91;5075849;27;47029;-86
2023/01/25 01:06:19;;;;;;;;;60.00;43.75;;;;;4.05;100.00;102982.94;5064744;28;44857;-83
2023/01/25 01:08:45;;;;;;;;;57.75;43.00;;;;;4.17;100.00;103011.03;5064683;28;45364;-82
2023/01/25 01:11:12;;;;;;;;;52.25;40.75;;;;;4.17;100.00;102994.75;5064459;27;45605;-83
2023/01/25 01:13:38;;;;;;;;;56.50;42.50;;;;;4.14;100.00;102990.41;5078744;27;45487;-82
2023/01/25 01:16:10;;;;;;;;;55.50;43.00;;;;;4.11;100.00;102989.78;5082024;27;45765;-82
2023/01/25 01:18:44;;;;;;;;;58.00;41.75;;;;;4.20;100.00;103003.53;5079004;28;45407;-83
2023/01/25 01:21:11;;;;;;;;;59.00;40.75;;;;;4.14;100.00;102994.97;5080476;28;45738;-82
2023/01/25 01:23:37;;;;;;;;;62.25;45.00;;;;;4.15;100.00;102988.56;5079155;28;45695;-82
2023/01/25 01:26:05;;;;;;;;;52.25;39.75;;;;;4.20;100.00;102998.09;5063317;28;45431;-81
2023/01/25 01:28:33;;;;;;;;;62.50;45.00;;;;;4.17;100.00;102994.75;5077076;28;45397;-81
2023/01/25 01:31:04;;;;;;;;;57.00;41.25;;;;;4.14;100.00;102989.53;5077020;28;45831;-82
2023/01/25 01:33:30;;;;;;;;;53.25;42.00;;;;;4.17;100.00;102989.31;5068187;27;45853;-81
2023/01/25 01:35:55;;;;;;;;;55.00;39.50;;;;;4.22;100.00;103001.59;5085315;27;45492;-82
2023/01/25 01:38:24;;;;;;;;;57.50;42.25;;;;;4.18;100.00;102999.22;5066066;28;45795;-83
2023/01/25 01:40:50;;;;;;;;;55.75;41.75;;;;;4.11;100.00;102997.91;5077728;27;45855;-82
2023/01/25 01:43:19;;;;;;;;;52.50;38.75;;;;;4.01;100.00;103004.00;5076087;28;48084;-84
2023/01/25 01:45:47;;;;;;;;;57.75;41.75;;;;;4.08;100.00;103009.84;5074087;28;45498;-84
2023/01/25 01:48:26;;;;;;;;;50.75;39.25;;;;;3.96;100.00;102984.44;5072427;28;45917;-83
2023/01/25 01:50:55;;;;;;;;;54.00;39.75;;;;;4.02;100.00;102983.16;5078431;27;46265;-84
2023/01/25 01:53:23;;;;;;;;;60.00;42.50;;;;;4.26;100.00;103012.22;5088317;27;45630;-83
2023/01/25 01:55:51;;;;;;;;;61.75;44.25;;;;;4.28;100.00;103016.59;5081367;28;45789;-85
2023/01/25 01:58:18;;;;;;;;;61.00;47.00;;;;;4.04;100.00;102968.50;5090717;27;45534;-84
2023/01/25 02:00:44;;;;;;;;;65.00;48.50;;;;;4.09;100.00;102973.59;5061824;28;45655;-84
2023/01/25 02:03:12;;;;;;;;;53.50;39.50;;;;;4.17;100.00;102976.59;5082127;27;45904;-85
2023/01/25 02:05:50;;;;;;;;;63.75;44.75;;;;;4.20;100.00;102992.66;5090460;27;45867;-84
2023/01/25 02:08:20;;;;;;;;;54.00;40.50;;;;;4.27;100.00;102998.53;5072596;28;45551;-85
2023/01/25 02:10:47;;;;;;;;;58.25;44.00;;;;;4.40;100.00;103007.53;5061359;28;45581;-85
2023/01/25 02:13:12;;;;;;;;;64.50;46.00;;;;;4.27;100.00;102987.66;5073014;28;46309;-82
2023/01/25 02:15:45;;;;;;;;;57.00;43.75;;;;;4.47;100.00;103023.38;5086238;27;45689;-83
2023/01/25 02:18:11;;;;;;;;;58.25;43.00;;;;;4.13;100.00;102969.69;5075592;27;45368;-83
2023/01/25 02:20:46;;;;;;;;;63.50;46.25;;;;;4.54;100.00;103022.81;5104008;27;45417;-83
2023/01/25 02:23:59;;;;;;;;;58.75;46.25;;;;;4.56;100.00;103017.25;5064646;28;46947;-82
2023/01/25 02:26:25;;;;;;;;;60.50;44.25;;;;;4.52;100.00;103022.06;5064893;27;45356;-82
2023/01/25 02:29:09;;;;;;;;;67.50;49.50;;;;;4.29;100.00;102996.56;5080625;27;45470;-84
2023/01/25 02:31:35;;;;;;;;;52.75;42.25;;;;;4.30;100.00;103014.59;5063886;27;45512;-81
2023/01/25 02:34:01;;;;;;;;;61.25;48.25;;;;;4.35;100.00;103028.72;5073355;28;47091;-82
2023/01/25 02:36:34;;;;;;;;;58.50;44.00;;;;;4.23;100.00;103005.16;5080068;27;45263;-82
2023/01/25 02:39:05;;;;;;;;;64.25;45.25;;;;;4.39;100.00;103018.50;5079184;28;45427;-83
2023/01/25 02:41:39;;;;;;;;;60.25;44.50;;;;;4.42;100.00;103024.56;5079512;27;45488;-81
2023/01/25 02:44:16;;;;;;;;;66.00;45.75;;;;;4.23;100.00;102986.16;5079861;27;45723;-83
2023/01/25 02:46:43;;;;;;;;;70.25;50.00;;;;;4.34;100.00;103005.25;5055149;27;45459;-82
2023/01/25 02:49:10;;;;;;;;;58.50;41.00;;;;;4.38;100.00;103017.63;5092568;27;45760;-82
2023/01/25 02:51:39;;;;;;;;;59.25;43.75;;;;;4.26;100.00;103007.66;5078080;27;45532;-81
2023/01/25 02:54:06;;;;;;;;;54.50;42.00;;;;;4.42;100.00;103019.13;5077762;27;48129;-83
2023/01/25 02:56:33;;;;;;;;;59.00;45.50;;;;;4.34;100.00;103032.44;5071330;28;45446;-82
2023/01/25 02:59:04;;;;;;;;;62.50;47.00;;;;;4.36;100.00;103024.16;5079820;28;45470;-83
2023/01/25 03:01:33;;;;;;;;;64.00;44.00;;;;;4.39;100.00;103029.38;5073877;27;46552;-81
2023/01/25 03:03:58;;;;;;;;;59.00;46.25;;;;;4.36;100.00;103026.88;5059944;27;46720;-83
2023/01/25 03:06:24;;;;;;;;;63.00;45.00;;;;;4.12;100.00;102991.50;5074761;28;45391;-84
2023/01/25 03:08:50;;;;;;;;;57.25;43.50;;;;;4.07;100.00;102984.56;5058290;28;45905;-83
2023/01/25 03:11:15;;;;;;;;;61.00;45.00;;;;;4.29;100.00;102999.28;5044599;27;45377;-82
2023/01/25 03:13:41;;;;;;;;;57.50;42.75;;;;;4.23;100.00;102986.16;5071578;27;45914;-83
2023/01/25 03:16:10;;;;;;;;;63.75;49.50;;;;;4.49;100.00;103015.97;5081220;27;45429;-83
2023/01/25 03:18:37;;;;;;;;;62.50;44.25;;;;;4.54;100.00;103011.09;5073015;27;45529;-83
2023/01/25 03:21:13;;;;;;;;;65.50;47.50;;;;;4.52;100.00;103008.47;5083761;27;45594;-83
2023/01/25 03:23:40;;;;;;;;;67.00;48.00;;;;;4.54;100.00;103016.53;5094317;27;45489;-83
2023/01/25 03:26:10;;;;;;;;;61.50;46.25;;;;;4.59;100.00;103014.31;5068656;27;45529;-84
2023/01/25 03:28:36;;;;;;;;;67.00;46.50;;;;;4.62;100.00;103024.97;5060393;28;45395;-82
2023/01/25 03:31:03;;;;;;;;;62.25;47.00;;;;;4.28;100.00;102962.25;5061479;28;46155;-80
2023/01/25 03:33:30;;;;;;;;;56.00;40.50;;;;;4.53;100.00;103015.63;5080179;28;46890;-82
2023/01/25 03:35:56;;;;;;;;;70.75;45.25;;;;;4.56;100.00;103015.41;5093272;27;45442;-82
2023/01/25 03:38:22;;;;;;;;;58.00;48.00;;;;;4.30;100.00;102965.72;5090871;27;45550;-80
2023/01/25 03:40:48;;;;;;;;;62.50;44.00;;;;;4.33;100.00;102973.63;5075411;28;47196;-83
2023/01/25 03:43:14;;;;;;;;;66.75;48.00;;;;;4.44;100.00;102994.56;5090438;27;46547;-83
2023/01/25 03:45:40;;;;;;;;;65.50;47.25;;;;;4.57;100.00;103011.72;5098460;27;45351;-84
2023/01/25 03:48:05;;;;;;;;;61.00;45.00;;;;;4.50;100.00;102994.13;5083235;28;45695;-82
2023/01/25 03:50:31;;;;;;;;;63.25;45.25;;;;;4.48;100.00;102996.09;5067321;27;45496;-84
2023/01/25 03:53:06;;;;;;;;;55.75;39.50;;;;;4.57;100.00;103017.16;5061576;28;47126;-83
2023/01/25 03:55:33;;;;;;;;;58.50;43.75;;;;;4.57;100.00;103011.72;5093772;27;45443;-82
2023/01/25 03:57:59;;;;;;;;;61.75;44.25;;;;;4.54;100.00;103000.22;5086184;27;45915;-82
2023/01/25 04:00:25;;;;;;;;;61.00;45.25;;;;;4.49;100.00;103002.38;5061623;28;45652;-83
2023/01/25 04:02:50;;;;;;;;;66.00;44.25;;;;;4.30;100.00;102984.72;5072211;28;45946;-82
2023/01/25 04:05:16;;;;;;;;;67.75;46.25;;;;;4.38;100.00;102992.31;5077147;27;45648;-82
2023/01/25 04:07:42;;;;;;;;;59.00;45.75;;;;;4.18;100.00;102963.91;5064093;28;45823;-84
2023/01/25 04:10:08;;;;;;;;;58.75;44.25;;;;;4.36;100.00;103000.56;5071448;28;45520;-82
2023/01/25 04:12:33;;;;;;;;;58.25;44.25;;;;;4.34;100.00;102991.69;5080215;28;45426;-82
2023/01/25 04:14:59;;;;;;;;;64.25;45.75;;;;;4.35;100.00;102995.25;5083558;27;45403;-81
2023/01/25 04:17:24;;;;;;;;;58.00;41.75;;;;;4.33;100.00;102991.78;5068713;28;45502;-83
2023/01/25 04:19:50;;;;;;;;;58.75;43.75;;;;;4.30;100.00;102984.72;5087908;27;45713;-81
2023/01/25 04:22:16;;;;;;;;;61.75;45.25;;;;;4.31;100.00;102991.91;5088543;27;45003;-84
2023/01/25 04:24:42;;;;;;;;;55.25;42.25;;;;;4.35;100.00;103000.69;5088726;27;45809;-83
2023/01/25 04:27:09;;;;;;;;;57.75;43.50;;;;;4.18;100.00;102967.47;5066445;28;45304;-82
2023/01/25 04:29:35;;;;;;;;;56.75;41.00;;;;;4.36;100.00;103000.56;5084525;27;45471;-83
2023/01/25 04:32:01;;;;;;;;;59.50;42.75;;;;;4.15;100.00;102973.13;5082978;28;45902;-80
2023/01/25 04:34:27;;;;;;;;;52.00;37.25;;;;;3.95;100.00;102932.97;5075965;27;45902;-84
2023/01/25 04:36:52;;;;;;;;;54.00;42.00;;;;;4.38;100.00;103001.31;5086136;27;45339;-84
2023/01/25 04:39:18;;;;;;;;;64.75;45.50;;;;;4.25;100.00;102984.19;5080197;27;45868;-80
2023/01/25 04:41:44;;;;;;;;;48.25;41.25;;;;;4.22;100.00;102968.09;5056086;28;47042;-82
2023/01/25 04:44:10;;;;;;;;;55.00;42.50;;;;;4.33;100.00;102987.22;5085727;27;45499;-82
2023/01/25 04:46:35;;;;;;;;;56.00;42.75;;;;;4.39;100.00;102985.91;5082683;27;44900;-82
2023/01/25 04:49:01;;;;;;;;;61.25;43.75;;;;;4.45;100.00;102999.03;5082317;28;45485;-81
2023/01/25 04:51:30;;;;;;;;;55.00;41.25;;;;;4.28;100.00;102967.69;5086393;28;45429;-83
2023/01/25 04:53:55;;;;;;;;;57.50;39.75;;;;;4.47;100.00;102997.06;5071993;28;45469;-83
2023/01/25 04:56:21;;;;;;;;;55.75;40.25;;;;;4.34;100.00;102971.78;5077856;27;45348;-82
2023/01/25 04:58:46;;;;;;;;;51.75;39.75;;;;;4.28;100.00;102962.25;5099830;27;45363;-83
2023/01/25 05:01:12;;;;;;;;;55.25;40.75;;;;;4.39;100.00;102983.19;5073217;28;47022;-82
2023/01/25 05:03:37;;;;;;;;;57.75;42.25;;;;;4.19;100.00;102952.03;5083420;27;45461;-82
2023/01/25 05:06:03;;;;;;;;;59.50;41.25;;;;;4.35;100.00;102965.38;5073475;27;45478;-82
2023/01/25 05:08:29;;;;;;;;;56.50;39.25;;;;;4.31;100.00;102961.13;5064515;28;46449;-82
2023/01/25 05:10:55;;;;;;;;;33.75;28.50;;;;;4.20;100.00;102949.22;5085301;28;46302;-81
2023/01/25 05:13:20;;;;;;;;;50.75;36.25;;;;;4.27;100.00;102960.50;5073854;28;45382;-83
2023/01/25 05:15:46;;;;;;;;;51.50;39.00;;;;;4.08;100.00;102933.81;5082552;28;45335;-82
2023/01/25 05:18:12;;;;;;;;;53.50;42.00;;;;;4.38;100.00;102985.03;5082166;27;45884;-81
2023/01/25 05:20:38;;;;;;;;;56.00;38.00;;;;;4.15;100.00;102950.56;5087279;27;46408;-81
2023/01/25 05:23:04;;;;;;;;;56.50;39.50;;;;;4.24;100.00;102960.75;5064794;27;45454;-82
2023/01/25 05:28:14;;;;;;;;;53.00;39.75;;;;;4.08;100.00;102933.81;5098632;27;45377;-82
2023/01/25 05:30:40;;;;;;;;;52.25;38.75;;;;;4.38;100.00;102982.31;5094785;27;45780;-81
2023/01/25 05:33:05;;;;;;;;;55.50;40.25;;;;;4.17;100.00;102946.72;5075038;27;45422;-82
2023/01/25 05:35:31;;;;;;;;;33.50;24.75;;;;;4.42;100.00;102977.53;5079012;28;45459;-80
2023/01/25 05:37:57;;;;;;;;;45.00;37.25;;;;;4.28;100.00;102972.22;5081165;27;45518;-80
2023/01/25 05:40:23;;;;;;;;;36.00;27.50;;;;;4.11;100.00;102954.47;5093809;27;45756;-80
2023/01/25 05:42:56;;;;;;;;;77.00;53.50;;;;;4.10;100.00;102985.31;5068176;28;45668;-80
2023/01/25 05:45:22;;;;;;;;;37.75;31.00;;;;;3.88;100.00;102954.28;5085157;27;45862;-81
2023/01/25 05:48:00;;;;;;;;;28.33;20.67;;;;;4.01;100.00;102976.84;5075874;28;46236;-84
2023/01/25 05:50:27;;;;;;;;;30.33;24.33;;;;;4.06;100.00;102981.94;5086076;28;47916;-83
2023/01/25 05:52:53;;;;;;;;;26.00;22.67;;;;;3.76;100.00;102933.44;5081310;27;45454;-85
2023/01/25 05:55:18;;;;;;;;;38.33;29.00;;;;;3.65;100.00;102937.81;5064533;27;45842;-83
2023/01/25 05:57:44;;;;;;;;;33.00;25.00;;;;;3.96;100.00;102981.72;5059140;28;45417;-84
2023/01/25 06:00:10;;;;;;;;;32.33;22.33;;;;;3.88;100.00;102976.84;5075707;28;45524;-84
2023/01/25 06:02:39;;;;;;;;;30.33;22.00;;;;;3.79;100.00;102968.53;5083308;27;45525;-83
2023/01/25 06:05:05;;;;;;;;;24.67;16.00;;;;;3.80;100.00;102975.66;5064088;28;45497;-83
2023/01/25 06:07:35;;;;;;;;;24.33;16.67;;;;;3.66;100.00;102960.38;5077939;27;45430;-82
2023/01/25 06:10:03;;;;;;;;;22.00;14.67;;;;;3.39;100.00;102933.34;5062756;28;47489;-83
2023/01/25 06:12:29;;;;;;;;;25.00;21.33;;;;;3.62;100.00;102976.00;5062224;27;45856;-84
2023/01/25 06:14:54;;;;;;;;;30.67;21.00;;;;;3.62;100.00;102976.00;5087840;27;45652;-82
2023/01/25 06:17:20;;;;;;;;;28.67;25.00;;;;;3.60;100.00;102979.81;5078177;27;45499;-84
2023/01/25 06:19:46;;;;;;;;;26.33;22.67;;;;;3.48;100.00;102951.69;5075883;27;45700;-80
2023/01/25 06:22:11;;;;;;;;;36.00;27.00;;;;;3.47;100.00;102968.94;5075985;27;45699;-83
2023/01/25 06:24:37;;;;;;;;;25.00;20.67;;;;;3.42;100.00;102957.53;5076238;27;45564;-83
2023/01/25 06:27:02;;;;;;;;;34.75;30.75;;;;;3.59;100.00;102969.91;5059599;28;45469;-83
2023/01/25 06:29:28;;;;;;;;;28.50;22.25;;;;;3.52;100.00;102948.66;5061477;28;47268;-85
2023/01/25 06:31:54;;;;;;;;;20.25;20.00;;;;;3.45;100.00;102935.63;5083235;27;45722;-82
2023/01/25 06:34:21;;;;;;;;;19.67;16.67;;;;;3.52;100.00;102967.63;5056689;28;45383;-78
2023/01/25 06:36:47;;;;;;;;;30.33;25.67;;;;;3.18;100.00;102912.16;5070983;27;46153;-80
2023/01/25 06:39:13;;;;;;;;;29.33;20.67;;;;;3.40;100.00;102959.47;5051684;28;48030;-79
2023/01/25 06:41:39;;;;;;;;;27.67;22.33;;;;;3.50;100.00;102966.88;5053549;27;45393;-80
2023/01/25 06:44:04;;;;;;;;;19.67;15.00;;;;;3.57;100.00;102969.16;5053623;27;45854;-83
2023/01/25 06:46:33;;;;;;;;;21.67;18.00;;;;;3.51;100.00;102973.16;5075425;27;45718;-80
2023/01/25 06:48:59;;;;;;;;;17.67;14.33;;;;;3.31;100.00;102945.59;5076982;27;46399;-80
2023/01/25 06:51:24;;;;;;;;;12.00;9.33;;;;;3.38;100.00;102965.00;5055940;28;45528;-78
2023/01/25 06:53:53;;;;;;;;;23.00;15.33;;;;;3.27;100.00;102954.91;5074974;27;45418;-85
2023/01/25 06:56:26;;;;;;;;;10.33;6.00;;;;;3.32;100.00;102969.03;5076102;27;45979;-84
2023/01/25 06:58:52;;;;;;;;;16.00;16.00;;;;;3.30;100.00;102973.69;5086731;27;46730;-84
2023/01/25 07:01:21;;;;;;;;;24.33;16.33;;;;;3.22;100.00;102943.53;5057634;28;45593;-81
2023/01/25 07:03:50;;;;;;;;;13.67;12.67;;;;;3.31;100.00;102961.88;5076975;27;45513;-80
2023/01/25 07:06:50;;;;;;;;;20.33;18.00;;;;;3.45;100.00;102951.91;5076168;27;45508;-85
2023/01/25 07:09:22;;;;;;;;;32.00;20.00;;;;;3.58;100.00;102958.22;5073769;27;46239;-80
2023/01/25 07:11:48;;;;;;;;;28.33;22.67;;;;;3.36;100.00;102923.56;5070980;28;45749;-79
2023/01/25 07:14:14;;;;;;;;;27.00;23.00;;;;;3.56;100.00;102949.28;5070160;27;45448;-79
2023/01/25 07:16:39;;;;;;;;;33.67;23.33;;;;;3.39;100.00;102923.34;5067200;27;45465;-78
2023/01/25 07:19:06;;;;;;;;;24.25;19.00;;;;;3.57;100.00;102953.75;5081376;27;46484;-79
2023/01/25 07:21:41;;;;;;;;;22.00;21.33;;;;;3.40;100.00;102924.22;5073812;27;45632;-78
2023/01/25 07:24:14;;;;;;;;;26.00;20.25;;;;;3.31;100.00;102912.19;5086160;27;45767;-83
2023/01/25 07:26:41;;;;;;;;;27.25;23.75;;;;;3.48;100.00;102948.97;5074804;27;45663;-76
2023/01/25 07:29:16;;;;;;;;;34.50;27.00;;;;;3.28;100.00;102923.22;5078088;27;46259;-76
2023/01/25 07:31:41;;;;;;;;;35.00;27.75;;;;;3.43;100.00;102945.69;5078632;27;45500;-74
2023/01/25 07:34:09;;;;;;;;;21.75;19.00;;;;;3.46;100.00;102942.81;5074604;27;45695;-76
2023/01/25 07:36:36;;;;;;;;;24.67;20.33;;;;;3.39;100.00;102944.19;5056990;27;45873;-80
2023/01/25 07:39:01;;;;;;;;;21.00;19.00;;;;;3.44;100.00;102958.28;5053593;28;46789;-78
2023/01/25 07:41:27;;;;;;;;;29.50;19.75;;;;;3.41;100.00;102961.22;5074755;27;45445;-79
2023/01/25 07:43:54;;;;;;;;;32.00;22.25;;;;;3.24;100.00;102938.84;5085703;27;45905;-80
2023/01/25 07:46:25;;;;;;;;;21.25;18.00;;;;;3.37;100.00;102960.59;5081227;27;45540;-81
2023/01/25 07:48:52;;;;;;;;;28.67;24.00;;;;;3.35;100.00;102957.97;5071170;27;46873;-82
2023/01/25 07:51:25;;;;;;;;;32.33;22.67;;;;;3.28;100.00;102953.06;5066200;27;45982;-80
2023/01/25 07:53:54;;;;;;;;;24.00;18.75;;;;;3.23;100.00;102955.22;5052435;28;45850;-80
2023/01/25 07:56:23;;;;;;;;;29.25;25.25;;;;;3.17;100.00;102945.66;5060001;27;45832;-81
2023/01/25 07:58:50;;;;;;;;;29.50;21.50;;;;;3.20;100.00;102948.16;5065769;27;46791;-80
2023/01/25 08:01:18;;;;;;;;;24.25;18.75;;;;;3.33;100.00;102965.31;5081215;27;45691;-82
2023/01/25 08:03:47;;;;;;;;;31.00;27.50;;;;;3.34;100.00;102947.22;5068742;27;46186;-81
2023/01/25 08:06:21;;;;;;;;;32.00;23.00;;;;;3.23;100.00;102930.81;5039722;28;47145;-82
2023/01/25 08:08:49;;;;;;;;;32.00;21.33;;;;;3.18;100.00;102932.00;5077067;27;47024;-80
2023/01/25 08:11:27;;;;;;;;;34.33;24.00;;;;;3.12;100.00;102909.88;5073810;27;45362;-82
2023/01/25 08:13:53;;;;;;;;;26.50;22.25;;;;;3.37;100.00;102955.16;5071556;28;45730;-82
2023/01/25 08:16:21;;;;;;;;;30.75;23.50;;;;;3.43;100.00;102961.97;5071354;27;45704;-83
2023/01/25 08:18:51;;;;;;;;;25.75;19.75;;;;;3.48;100.00;102957.13;5050741;28;46847;-84
2023/01/25 08:21:17;;;;;;;;;22.33;20.00;;;;;3.48;100.00;102940.84;5045358;27;45764;-81
2023/01/25 08:23:43;;;;;;;;;34.75;27.00;;;;;3.63;100.00;102956.03;5069489;27;46570;-83
2023/01/25 08:26:11;;;;;;;;;29.33;19.67;;;;;3.70;100.00;102951.91;5045247;28;46590;-81
2023/01/25 08:28:37;;;;;;;;;22.75;19.50;;;;;3.71;100.00;102953.66;5071542;27;46308;-80
2023/01/25 08:31:17;;;;;;;;;32.75;24.75;;;;;3.54;100.00;102915.97;5058110;28;45371;-81
2023/01/25 08:33:44;;;;;;;;;27.33;19.67;;;;;3.74;100.00;102946.25;5061248;28;45755;-82
2023/01/25 08:36:13;;;;;;;;;30.00;22.67;;;;;3.79;100.00;102952.25;5083972;27;45804;-80
2023/01/25 08:38:38;;;;;;;;;30.25;21.25;;;;;3.88;100.00;102944.28;5068712;28;45569;-84
2023/01/25 08:41:10;;;;;;;;;29.67;25.00;;;;;3.94;100.00;102940.28;5055019;27;45398;-82
2023/01/25 08:43:37;;;;;;;;;31.50;26.75;;;;;3.99;100.00;102939.94;5057825;27;45713;-82
2023/01/25 08:46:03;;;;;;;;;26.67;23.67;;;;;4.06;100.00;102936.66;5057423;27;47393;-82
2023/01/25 08:48:29;;;;;;;;;27.00;17.33;;;;;4.09;100.00;102940.13;5079605;27;45895;-82
2023/01/25 08:50:54;;;;;;;;;23.33;16.67;;;;;4.01;100.00;102928.00;5077360;27;45979;-81
2023/01/25 08:53:20;;;;;;;;;19.67;17.00;;;;;4.06;100.00;102942.09;5076030;27;45535;-80
2023/01/25 08:55:46;;;;;;;;;25.33;21.33;;;;;4.12;100.00;102938.06;5070177;27;46487;-80
2023/01/25 08:58:12;;;;;;;;;24.67;21.00;;;;;4.20;100.00;102942.94;5066460;27;45755;-80
2023/01/25 09:00:39;;;;;;;;;26.00;21.33;;;;;4.12;100.00;102919.06;5060560;27;45772;-83
2023/01/25 09:03:09;;;;;;;;;23.67;16.67;;;;;4.14;100.00;102916.22;5060731;27;45415;-83
2023/01/25 09:05:37;;;;;;;;;24.00;19.00;;;;;4.16;100.00;102942.28;5052216;27;45897;-81
2023/01/25 09:08:05;;;;;;;;;20.00;15.33;;;;;3.96;100.00;102915.72;5073716;27;45915;-81
2023/01/25 09:10:41;;;;;;;;;22.00;19.67;;;;;4.13;100.00;102944.34;5073972;27;45874;-80
2023/01/25 09:13:07;;;;;;;;;20.67;14.33;;;;;4.15;100.00;102934.25;5072917;28;45751;-81
2023/01/25 09:15:34;;;;;;;;;20.33;15.00;;;;;4.26;100.00;102936.19;5052480;28;45561;-81
2023/01/25 09:18:00;;;;;;;;;18.33;10.67;;;;;4.34;100.00;102940.06;5064007;27;45740;-79
2023/01/25 09:20:26;;;;;;;;;24.67;22.00;;;;;4.22;100.00;102913.78;5060487;28;45937;-81
2023/01/25 09:22:51;;;;;;;;;27.75;25.25;;;;;4.18;100.00;102918.59;5060678;28;45883;-79
2023/01/25 09:25:17;;;;;;;;;32.33;24.67;;;;;3.95;100.00;102904.00;5071028;27;45626;-80
2023/01/25 09:27:43;;;;;;;;;29.00;23.33;;;;;4.01;100.00;102905.38;5070645;27;45924;-80
2023/01/25 09:30:14;;;;;;;;;32.67;21.33;;;;;3.94;100.00;102920.38;5057511;27;45517;-82
2023/01/25 09:32:39;;;;;;;;;24.33;20.67;;;;;3.94;100.00;102933.94;5059488;27;45542;-79
2023/01/25 09:35:05;;;;;;;;;32.33;28.00;;;;;3.81;100.00;102917.69;5075948;27;45765;-79
2023/01/25 09:37:31;;;;;;;;;34.25;27.00;;;;;3.84;100.00;102925.63;5078241;27;46448;-79
2023/01/25 09:40:04;;;;;;;;;24.67;21.00;;;;;3.71;100.00;102915.66;5051143;28;46300;-79
2023/01/25 09:42:53;;;;;;;;;33.50;25.50;;;;;3.77;100.00;102930.59;5055801;27;45468;-82
2023/01/25 09:45:29;;;;;;;;;33.00;26.00;;;;;3.86;100.00;102926.38;5071898;27;45719;-79
2023/01/25 09:48:53;;;;;;;;;27.50;23.50;;;;;3.88;100.00;102916.28;5073428;27;45983;-80
2023/01/25 09:51:37;;;;;;;;;35.50;25.00;;;;;3.83;100.00;102929.31;4994332;28;45875;-80
2023/01/25 09:54:03;;;;;;;;;30.67;27.00;;;;;3.83;100.00;102932.91;5015717;28;45638;-79
2023/01/25 09:56:35;;;;;;;;;21.25;15.50;;;;;3.86;100.00;102940.81;5015193;27;45613;-81
2023/01/25 09:59:15;;;;;;;;;22.00;17.00;;;;;3.87;100.00;102931.69;5053004;28;46519;-80
2023/01/25 10:01:45;;;;;;;;;26.00;16.33;;;;;3.84;100.00;102931.06;5080518;27;45936;-82
2023/01/25 10:04:23;;;;;;;;;14.00;11.67;;;;;3.74;100.00;102924.53;5080843;27;45678;-80
2023/01/25 10:07:15;;;;;;;;;34.25;22.50;;;;;3.79;100.00;102927.81;5072154;27;45702;-81
2023/01/25 10:09:56;;;;;;;;;28.50;24.75;;;;;3.96;100.00;102934.72;5049489;27;45785;-79
2023/01/25 10:12:23;;;;;;;;;32.00;24.50;;;;;3.84;100.00;102915.63;5074436;27;45431;-80
2023/01/25 10:14:50;;;;;;;;;28.67;24.67;;;;;4.01;100.00;102943.38;5073893;27;45607;-80
2023/01/25 10:17:37;;;;;;;;;31.00;22.75;;;;;3.94;100.00;102940.28;5055287;28;45748;-80
2023/01/25 10:20:27;;;;;;;;;26.75;21.50;;;;;3.94;100.00;102942.97;5054734;27;47124;-81
2023/01/25 10:23:32;;;;;;;;;29.50;23.25;;;;;4.04;100.00;102937.72;5075451;27;45516;-78
2023/01/25 10:26:07;;;;;;;;;34.00;22.00;;;;;4.06;100.00;102914.94;5039704;27;45559;-80
2023/01/25 10:28:41;;;;;;;;;28.00;23.33;;;;;4.17;100.00;102944.00;5061464;28;45380;-79
2023/01/25 10:31:28;;;;;;;;;31.33;24.33;;;;;4.16;100.00;102939.59;5066439;28;48884;-77
2023/01/25 10:33:55;;;;;;;;;31.25;28.25;;;;;4.15;100.00;102917.97;5050414;28;45585;-79
2023/01/25 10:36:28;;;;;;;;;24.00;22.50;;;;;4.12;100.00;102897.31;5077052;27;46125;-82
2023/01/25 10:38:58;;;;;;;;;31.25;23.25;;;;;4.31;100.00;102925.81;5055670;28;45448;-83
2023/01/25 10:41:39;;;;;;;;;36.50;29.25;;;;;4.12;100.00;102900.03;5077098;27;45624;-82
2023/01/25 10:44:23;;;;;;;;;36.00;27.67;;;;;4.37;100.00;102928.97;5059936;27;45602;-80
2023/01/25 10:47:16;;;;;;;;;34.00;23.75;;;;;4.49;100.00;102923.59;5050060;27;45521;-81
2023/01/25 10:49:55;;;;;;;;;31.67;21.67;;;;;4.36;100.00;102882.91;5072328;28;46012;-80
2023/01/25 10:52:25;;;;;;;;;30.00;26.50;;;;;4.62;100.00;102931.69;5069446;27;46034;-81
2023/01/25 10:55:11;;;;;;;;;28.33;23.00;;;;;4.65;100.00;102916.00;5071311;27;45588;-81
2023/01/25 10:57:42;;;;;;;;;33.00;26.33;;;;;4.45;100.00;102903.09;5062918;27;45596;-79
2023/01/25 11:00:38;;;;;;;;;42.00;30.75;;;;;4.45;100.00;102917.53;5069488;27;45980;-81
2023/01/25 11:03:05;;;;;;;;;38.33;28.33;;;;;4.27;100.00;102891.72;5073049;27;45562;-79
2023/01/25 11:05:36;;;;;;;;;33.25;28.50;;;;;4.32;100.00;102898.56;5055006;27;45490;-81
2023/01/25 11:08:27;;;;;;;;;38.00;30.33;;;;;4.17;100.00;102910.56;5083393;27;45817;-81
2023/01/25 11:10:53;;;;;;;;;42.50;31.25;;;;;3.95;100.00;102884.13;5056313;28;46240;-81
2023/01/25 11:13:23;;;;;;;;;36.75;26.00;;;;;4.10;100.00;102915.56;5059332;27;45571;-80
2023/01/25 11:15:51;;;;;;;;;33.33;31.00;;;;;4.15;100.00;102905.25;5078036;27;45586;-81
2023/01/25 11:18:27;;;;;;;;;46.50;27.75;;;;;4.17;100.00;102900.56;5073938;27;45791;-82
2023/01/25 11:21:11;;;;;;;;;32.00;26.25;;;;;4.19;100.00;102887.75;5064173;28;47351;-82